Time;durP1;ratioP1;P1;durP2;ratioP2;P2;SDS_P1;SDS_P2;PMS_P1;PMS_P2;Temp;Humidity;BMP_temperature;BMP_pressure;BME280_temperature;BME280_humidity;BME280_pressure;Samples;Min_cycle;Max_cycle;Signal;HPM_P1;HPM_P2
2022/04/20 00:01:33;;;;;;;12.20;6.60;;;;;;;10.36;66.63;101644.69;5014083;28;20466;-35
2022/04/20 00:03:58;;;;;;;13.00;6.82;;;;;;;10.17;66.95;101642.44;5013687;28;20046;-37
2022/04/20 00:06:23;;;;;;;14.02;7.13;;;;;;;10.15;67.10;101637.41;5012782;28;20397;-34
2022/04/20 00:08:48;;;;;;;11.40;6.82;;;;;;;10.05;68.12;101643.72;5013887;28;20021;-35
2022/04/20 00:11:14;;;;;;;12.90;6.53;;;;;;;9.98;68.08;101648.72;5014481;28;20388;-35
2022/04/20 00:13:39;;;;;;;12.68;6.80;;;;;;;9.97;67.82;101646.31;5013717;28;20541;-34
2022/04/20 00:16:04;;;;;;;12.57;7.03;;;;;;;9.85;68.60;101648.41;5012617;28;20105;-32
2022/04/20 00:18:30;;;;;;;10.60;6.57;;;;;;;9.96;67.89;101642.13;5012572;28;20436;-35
2022/04/20 00:20:55;;;;;;;12.35;6.35;;;;;;;9.87;68.02;101641.31;5014073;28;20024;-34
2022/04/20 00:23:20;;;;;;;12.85;6.90;;;;;;;9.81;68.48;101642.78;5013721;28;20018;-35
2022/04/20 00:25:46;;;;;;;15.05;6.82;;;;;;;9.84;68.46;101637.28;5013767;28;20129;-35
2022/04/20 00:28:11;;;;;;;13.00;6.03;;;;;;;9.68;69.26;101640.66;5013861;28;20032;-35
2022/04/20 00:30:36;;;;;;;15.30;6.53;;;;;;;9.79;69.20;101633.56;5013592;28;20105;-34
2022/04/20 00:33:02;;;;;;;15.23;7.00;;;;;;;9.81;68.96;101640.19;4995668;28;20384;-34
2022/04/20 00:35:27;;;;;;;12.98;6.50;;;;;;;9.57;69.40;101637.56;5013564;28;20030;-34
2022/04/20 00:37:53;;;;;;;10.98;6.60;;;;;;;9.77;69.19;101640.66;5013182;28;20037;-34
2022/04/20 00:40:19;;;;;;;10.68;6.10;;;;;;;9.58;69.42;101644.34;5013432;28;20037;-33
2022/04/20 00:42:44;;;;;;;15.68;6.70;;;;;;;9.57;69.92;101646.09;5013810;28;20465;-34
2022/04/20 00:45:11;;;;;;;12.52;6.85;;;;;;;9.43;69.97;101651.88;5013819;28;20025;-34
2022/04/20 00:47:38;;;;;;;16.90;6.80;;;;;;;9.48;69.88;101647.88;5014060;28;20037;-33
2022/04/20 00:50:06;;;;;;;12.38;6.32;;;;;;;9.34;70.36;101652.84;4996230;28;20105;-33
2022/04/20 00:52:31;;;;;;;12.15;6.75;;;;;;;9.39;70.17;101653.19;4995840;28;20030;-33
2022/04/20 00:54:57;;;;;;;11.60;6.45;;;;;;;9.47;69.52;101659.16;4995671;28;20392;-33
2022/04/20 00:57:22;;;;;;;12.63;7.15;;;;;;;9.48;69.35;101654.81;5013411;28;20508;-33
2022/04/20 00:59:49;;;;;;;10.07;6.50;;;;;;;9.30;69.99;101654.94;5013339;28;20022;-33
2022/04/20 01:02:14;;;;;;;11.18;6.28;;;;;;;9.32;70.25;101655.59;5013361;28;20029;-33
2022/04/20 01:04:40;;;;;;;11.57;6.55;;;;;;;9.47;69.82;101658.38;5013354;28;20022;-33
2022/04/20 01:07:12;;;;;;;14.13;6.35;;;;;;;9.27;70.19;101657.81;4995695;28;20068;-34
2022/04/20 01:09:39;;;;;;;10.98;6.45;;;;;;;9.15;70.62;101652.16;5013272;28;20029;-33
2022/04/20 01:12:06;;;;;;;11.80;6.70;;;;;;;9.31;70.12;101650.56;4995553;28;20116;-33
2022/04/20 01:14:31;;;;;;;12.48;6.20;;;;;;;9.21;70.15;101655.88;4996679;28;20446;-33
2022/04/20 01:16:57;;;;;;;13.27;6.25;;;;;;;9.09;70.66;101646.78;4999778;28;20141;-34
2022/04/20 01:19:22;;;;;;;13.40;6.75;;;;;;;9.27;70.53;101650.88;5017076;28;20125;-34
2022/04/20 01:21:47;;;;;;;13.23;5.95;;;;;;;9.27;70.22;101652.66;5017010;28;20477;-34
2022/04/20 01:24:12;;;;;;;9.30;5.65;;;;;;;9.35;69.73;101644.13;5000537;28;20026;-35
2022/04/20 01:26:39;;;;;;;11.82;6.38;;;;;;;9.40;69.48;101650.44;5017267;28;20025;-35
2022/04/20 01:29:07;;;;;;;9.73;6.10;;;;;;;9.17;69.66;101647.63;5017240;28;20030;-31
2022/04/20 01:31:32;;;;;;;9.65;5.63;;;;;;;9.04;70.25;101645.50;5016877;28;20077;-33
2022/04/20 01:33:57;;;;;;;9.77;5.85;;;;;;;9.16;69.86;101640.06;4999143;28;20053;-33
2022/04/20 01:36:23;;;;;;;10.57;6.15;;;;;;;9.19;69.27;101643.13;5017120;28;20052;-33
2022/04/20 01:38:48;;;;;;;9.93;6.18;;;;;;;9.06;70.11;101647.09;5016740;28;20022;-32
2022/04/20 01:41:14;;;;;;;13.18;6.20;;;;;;;9.09;69.97;101650.19;4999194;28;20096;-33
2022/04/20 01:43:39;;;;;;;9.80;5.57;;;;;;;9.09;69.95;101652.78;5016978;28;20030;-34
2022/04/20 01:46:05;;;;;;;12.02;5.70;;;;;;;8.95;70.40;101655.94;5016536;28;20113;-34
2022/04/20 01:48:30;;;;;;;13.90;5.93;;;;;;;9.03;69.57;101654.19;5016888;28;20084;-34
2022/04/20 01:53:39;;;;;;;9.23;5.97;;;;;;;9.03;69.58;101667.09;5016850;28;20120;-35
2022/04/20 01:56:06;;;;;;;10.15;5.85;;;;;;;9.10;69.31;101661.31;5016505;28;20432;-34
2022/04/20 01:58:33;;;;;;;11.00;6.20;;;;;;;9.12;69.31;101669.69;5017399;28;20061;-34
2022/04/20 02:00:58;;;;;;;9.77;5.97;;;;;;;9.07;69.26;101662.44;4999499;28;20030;-35
2022/04/20 02:03:24;;;;;;;10.25;5.63;;;;;;;8.99;69.09;101663.19;5015042;28;20381;-34
2022/04/20 02:05:49;;;;;;;11.57;5.82;;;;;;;8.71;69.55;101643.72;5017282;28;20033;-35
2022/04/20 02:08:17;;;;;;;19.02;6.30;;;;;;;8.73;70.69;101663.22;5014980;28;20029;-34
2022/04/20 02:10:42;;;;;;;14.70;6.10;;;;;;;8.62;70.54;101660.91;4998756;28;20061;-34
2022/04/20 02:13:08;;;;;;;8.27;5.20;;;;;;;8.54;70.43;101658.28;5016053;28;20069;-35
2022/04/20 02:15:33;;;;;;;10.43;5.78;;;;;;;8.62;69.74;101657.53;5016091;28;20038;-35
2022/04/20 02:17:59;;;;;;;14.23;5.65;;;;;;;8.61;70.23;101655.94;5016181;28;20037;-34
2022/04/20 02:20:24;;;;;;;10.88;5.45;;;;;;;8.69;69.50;101651.63;5016007;28;20507;-35
2022/04/20 02:22:49;;;;;;;13.18;5.50;;;;;;;8.69;68.42;101656.78;5015991;28;20060;-34
2022/04/20 02:25:15;;;;;;;8.38;5.25;;;;;;;8.60;69.10;101649.94;5014599;28;20033;-34
2022/04/20 02:27:40;;;;;;;11.70;5.32;;;;;;;8.73;68.24;101646.97;4997366;28;20034;-34
2022/04/20 02:30:06;;;;;;;9.20;5.22;;;;;;;8.72;67.40;101655.66;5015811;28;20380;-33
2022/04/20 02:32:31;;;;;;;12.20;5.20;;;;;;;8.73;67.22;101641.81;5015733;28;20030;-35
2022/04/20 02:34:57;;;;;;;9.60;5.63;;;;;;;8.54;67.93;101653.94;5015595;28;20291;-34
2022/04/20 02:37:22;;;;;;;10.02;5.28;;;;;;;8.54;67.66;101653.94;5015714;28;20034;-35
2022/04/20 02:39:48;;;;;;;9.88;5.15;;;;;;;8.39;67.83;101658.03;4997977;28;20519;-35
2022/04/20 02:42:15;;;;;;;9.38;4.80;;;;;;;8.38;68.24;101663.31;5015581;28;20049;-34
2022/04/20 02:44:40;;;;;;;11.13;5.30;;;;;;;8.45;68.12;101660.00;4997966;28;20021;-35
2022/04/20 02:47:06;;;;;;;7.32;5.10;;;;;;;8.48;68.15;101657.13;5015770;28;20030;-34
2022/04/20 02:49:31;;;;;;;11.32;5.35;;;;;;;8.47;67.71;101662.44;4997955;28;20030;-33
2022/04/20 02:51:57;;;;;;;10.43;5.22;;;;;;;8.40;68.24;101661.41;5015350;28;20029;-34
2022/04/20 02:54:22;;;;;;;9.55;5.00;;;;;;;8.53;67.57;101651.53;5015282;28;20552;-35
2022/04/20 02:56:47;;;;;;;9.48;5.03;;;;;;;8.46;68.10;101653.91;5015318;28;20113;-35
2022/04/20 02:59:12;;;;;;;9.40;4.72;;;;;;;8.47;67.24;101658.09;5015255;28;20025;-36
2022/04/20 03:01:38;;;;;;;8.25;4.85;;;;;;;8.23;67.65;101660.44;5015209;28;20037;-35
2022/04/20 03:04:03;;;;;;;9.02;5.13;;;;;;;8.22;67.66;101664.00;5015159;28;20018;-35
2022/04/20 03:06:29;;;;;;;9.18;5.22;;;;;;;8.19;68.00;101662.53;5015156;28;20061;-32
2022/04/20 03:08:54;;;;;;;10.13;4.47;;;;;;;8.34;67.14;101666.19;5014997;28;20076;-32
2022/04/20 03:11:21;;;;;;;8.30;4.95;;;;;;;8.28;67.07;101671.91;5015149;28;20025;-33
2022/04/20 03:13:46;;;;;;;9.82;4.63;;;;;;;8.26;66.86;101658.41;5014873;28;20133;-33
2022/04/20 03:16:12;;;;;;;9.95;4.53;;;;;;;8.28;66.40;101669.34;5014878;28;20030;-33
2022/04/20 03:18:37;;;;;;;14.68;4.82;;;;;;;8.17;66.39;101671.34;5014890;28;20057;-33
2022/04/20 03:21:03;;;;;;;8.93;4.70;;;;;;;8.07;66.65;101671.44;5014891;28;20468;-35
2022/04/20 03:23:29;;;;;;;9.75;4.68;;;;;;;8.16;66.47;101669.75;5015002;28;20044;-33
2022/04/20 03:25:54;;;;;;;10.32;4.75;;;;;;;8.09;66.35;101665.19;4997188;28;20025;-32
2022/04/20 03:28:20;;;;;;;9.32;4.63;;;;;;;8.15;66.22;101668.94;5015030;28;20483;-33
2022/04/20 03:30:46;;;;;;;7.72;4.47;;;;;;;8.10;66.03;101677.09;5014707;28;20084;-34
2022/04/20 03:33:12;;;;;;;7.25;4.55;;;;;;;8.09;66.26;101666.97;4996956;28;20029;-34
2022/04/20 03:35:38;;;;;;;8.80;4.38;;;;;;;7.76;66.08;101642.69;5013243;28;20029;-33
2022/04/20 03:38:07;;;;;;;6.75;4.13;;;;;;;8.02;66.02;101682.16;5014374;28;20105;-33
2022/04/20 03:40:32;;;;;;;14.90;4.88;;;;;;;7.90;67.08;101679.00;5015015;28;20069;-33
2022/04/20 03:42:58;;;;;;;7.03;4.22;;;;;;;8.05;66.90;101675.91;4996829;28;20025;-33
2022/04/20 03:45:23;;;;;;;7.80;4.60;;;;;;;8.02;66.02;101679.59;5014375;28;20032;-33
2022/04/20 03:47:48;;;;;;;7.88;4.70;;;;;;;7.99;65.87;101682.47;4996757;28;20025;-33
2022/04/20 03:50:14;;;;;;;9.82;4.40;;;;;;;8.04;65.61;101682.84;5014302;28;20037;-33
2022/04/20 03:52:39;;;;;;;6.95;4.07;;;;;;;7.97;65.17;101679.25;4997563;28;20055;-32
2022/04/20 03:55:05;;;;;;;10.60;4.30;;;;;;;7.95;65.34;101678.59;5014196;28;20021;-33
2022/04/20 03:57:31;;;;;;;8.85;4.18;;;;;;;8.01;65.71;101684.91;4996480;28;20029;-34
2022/04/20 03:59:56;;;;;;;8.32;4.30;;;;;;;7.83;65.70;101693.44;4996571;28;20394;-34
2022/04/20 04:02:21;;;;;;;6.90;4.07;;;;;;;7.66;65.75;101683.94;5014171;28;20079;-34
2022/04/20 04:04:47;;;;;;;7.18;4.15;;;;;;;7.75;65.28;101687.41;5014150;28;20026;-35
2022/04/20 04:07:12;;;;;;;12.48;4.40;;;;;;;7.69;65.32;101686.22;5013982;28;20084;-34
2022/04/20 04:09:38;;;;;;;9.02;3.92;;;;;;;7.79;64.69;101696.44;4996294;28;20036;-34
2022/04/20 04:12:04;;;;;;;6.97;4.00;;;;;;;7.71;65.37;101686.06;5012742;28;20026;-34
2022/04/20 04:14:30;;;;;;;10.55;3.88;;;;;;;7.66;64.77;101691.66;4996040;28;20091;-34
2022/04/20 04:16:55;;;;;;;7.32;3.97;;;;;;;7.75;64.44;101692.56;5012579;28;20380;-34
2022/04/20 04:19:20;;;;;;;5.75;4.03;;;;;;;7.58;65.46;101689.81;4996228;28;20026;-34
2022/04/20 04:21:46;;;;;;;6.38;3.65;;;;;;;7.59;64.78;101691.41;5013922;28;20396;-34
2022/04/20 04:24:34;;;;;;;5.95;4.00;;;;;;;7.69;64.64;101697.31;5014079;28;20026;-34
2022/04/20 04:26:58;;;;;;;6.97;3.63;;;;;;;7.76;64.54;101710.41;5013595;28;20444;-34
2022/04/20 04:29:23;;;;;;;5.85;3.78;;;;;;;7.62;64.51;101700.59;5013935;28;20381;-34
2022/04/20 04:31:48;;;;;;;9.13;4.10;;;;;;;7.50;65.08;101696.63;5013619;28;20030;-34
2022/04/20 04:34:13;;;;;;;8.15;3.65;;;;;;;7.44;64.78;101698.81;5013599;28;20021;-33
2022/04/20 04:36:39;;;;;;;8.32;3.92;;;;;;;7.50;64.64;101699.19;5013619;28;20064;-35
2022/04/20 04:39:04;;;;;;;8.15;3.88;;;;;;;7.44;64.67;101700.56;5014100;28;20472;-34
2022/04/20 04:41:29;;;;;;;7.03;3.97;;;;;;;7.66;64.04;101704.53;5013483;28;20117;-35
2022/04/20 04:43:54;;;;;;;5.38;3.78;;;;;;;7.63;63.87;101697.91;5013510;28;20018;-36
2022/04/20 04:49:04;;;;;;;6.78;4.20;;;;;;;7.53;63.96;101704.84;5013250;28;20104;-34
2022/04/20 04:51:29;;;;;;;9.35;4.05;;;;;;;7.45;64.24;101705.59;5013683;28;20477;-34
2022/04/20 04:53:54;;;;;;;6.00;3.75;;;;;;;7.33;63.90;101700.75;5013401;28;20084;-34
2022/04/20 04:56:20;;;;;;;5.22;3.63;;;;;;;7.40;64.39;101705.22;5013940;28;20030;-34
2022/04/20 04:58:45;;;;;;;9.73;3.78;;;;;;;7.65;63.44;101708.88;5013661;28;20076;-34
2022/04/20 05:01:10;;;;;;;5.07;3.67;;;;;;;7.50;63.60;101709.47;5013623;28;20029;-34
2022/04/20 05:03:35;;;;;;;7.85;3.70;;;;;;;7.40;63.62;101700.06;5013536;28;20096;-34
2022/04/20 05:06:01;;;;;;;7.68;3.60;;;;;;;7.58;63.06;101720.66;5013392;28;20105;-34
2022/04/20 05:08:26;;;;;;;6.50;3.53;;;;;;;7.47;63.75;101713.94;5013461;28;20488;-34
2022/04/20 05:10:52;;;;;;;6.72;3.90;;;;;;;7.52;63.71;101725.59;5013961;28;20396;-34
2022/04/20 05:13:17;;;;;;;8.82;3.70;;;;;;;7.52;63.00;101720.44;4995455;28;20054;-34
2022/04/20 05:15:43;;;;;;;9.65;5.22;;;;;;;7.66;63.95;101730.25;4995735;28;20045;-34
2022/04/20 05:18:08;;;;;;;5.85;3.47;;;;;;;7.75;63.35;101731.94;5013268;28;20034;-35
2022/04/20 05:20:34;;;;;;;10.63;4.00;;;;;;;7.62;63.26;101724.59;5013204;28;20022;-34
2022/04/20 05:22:59;;;;;;;10.82;4.00;;;;;;;7.71;63.84;101733.22;5013910;28;20037;-36
2022/04/20 05:25:24;;;;;;;7.43;3.90;;;;;;;7.88;62.45;101734.16;4995427;28;20021;-33
2022/04/20 05:27:49;;;;;;;5.65;3.70;;;;;;;7.82;63.03;101735.53;5013459;28;20026;-35
2022/04/20 05:30:15;;;;;;;7.07;3.88;;;;;;;7.85;62.59;101740.44;4995515;28;20045;-34
2022/04/20 05:32:41;;;;;;;9.25;3.70;;;;;;;7.87;61.93;101740.28;5011899;28;20033;-35
2022/04/20 05:35:07;;;;;;;5.85;3.70;;;;;;;8.06;62.24;101739.34;5013168;28;20080;-34
2022/04/20 05:43:00;;;;;;;14.65;3.88;;;;;;;8.08;61.31;101751.09;5013202;28;20037;-33
2022/04/20 05:45:26;;;;;;;8.80;3.70;;;;;;;8.13;62.01;101741.16;5012326;28;20022;-34
2022/04/20 05:47:52;;;;;;;7.75;4.20;;;;;;;8.33;60.92;101754.69;5013128;28;20088;-34
2022/04/20 05:50:17;;;;;;;6.60;3.72;;;;;;;8.31;61.49;101745.50;4995355;28;20025;-34
2022/04/20 05:52:42;;;;;;;5.13;3.42;;;;;;;8.37;60.42;101742.31;5011523;28;20117;-34
2022/04/20 05:55:09;;;;;;;8.15;3.75;;;;;;;8.09;61.15;101749.34;5012952;28;20026;-34
2022/04/20 05:57:34;;;;;;;7.13;3.70;;;;;;;8.70;60.31;101746.00;4995135;28;20026;-34
2022/04/20 05:59:59;;;;;;;7.57;3.85;;;;;;;10.24;55.77;101740.72;4995241;28;20064;-34
2022/04/20 06:02:25;;;;;;;8.73;3.90;;;;;;;15.89;41.73;101741.31;5014942;28;20032;-34
2022/04/20 06:04:50;;;;;;;7.13;3.72;;;;;;;16.82;38.04;101737.88;5016458;28;20362;-37
2022/04/20 06:07:15;;;;;;;8.90;3.67;;;;;;;18.69;34.98;101738.31;5016185;28;20493;-35
2022/04/20 06:09:41;;;;;;;6.72;4.00;;;;;;;18.56;34.32;101734.03;5016287;28;20164;-35
2022/04/20 06:12:07;;;;;;;8.02;3.85;;;;;;;19.86;31.77;101732.03;5016393;28;20067;-35
2022/04/20 06:14:33;;;;;;;8.55;4.25;;;;;;;20.53;30.79;101729.91;5015814;28;20161;-35
2022/04/20 06:16:58;;;;;;;6.65;3.75;;;;;;;19.19;32.75;101727.72;4998452;28;20022;-35
2022/04/20 06:19:23;;;;;;;6.65;3.80;;;;;;;20.55;30.43;101727.09;5016076;28;20022;-36
2022/04/20 06:21:49;;;;;;;6.22;3.40;;;;;;;20.09;30.50;101729.44;4998332;28;20029;-36
2022/04/20 06:24:14;;;;;;;10.85;3.72;;;;;;;20.53;30.84;101729.13;5015841;28;20026;-36
2022/04/20 06:26:39;;;;;;;6.35;3.33;;;;;;;21.23;29.42;101730.78;5015997;28;20072;-35
2022/04/20 06:29:04;;;;;;;6.30;3.22;;;;;;;21.80;28.73;101723.63;5016206;28;20018;-35
2022/04/20 06:31:30;;;;;;;6.13;3.23;;;;;;;21.76;28.76;101734.88;5015661;28;20414;-35
2022/04/20 06:33:57;;;;;;;10.37;3.50;;;;;;;22.83;27.08;101725.06;5015885;28;20289;-36
2022/04/20 06:36:23;;;;;;;7.57;3.20;;;;;;;21.91;28.09;101727.22;5015639;28;20751;-35
2022/04/20 06:38:48;;;;;;;6.82;3.30;;;;;;;23.41;27.10;101727.03;5015635;28;20076;-35
2022/04/20 06:41:13;;;;;;;5.00;3.40;;;;;;;23.38;26.22;101721.47;5015503;28;20030;-36
2022/04/20 06:43:39;;;;;;;15.93;3.27;;;;;;;21.56;28.20;101730.88;5015531;28;20568;-36
2022/04/20 06:46:04;;;;;;;6.40;3.23;;;;;;;22.87;27.21;101731.44;5015439;28;20346;-36
2022/04/20 06:48:29;;;;;;;4.93;3.30;;;;;;;23.30;26.53;101735.88;5015381;28;20283;-35
2022/04/20 06:50:54;;;;;;;7.60;3.25;;;;;;;23.53;25.96;101736.63;5015332;28;20281;-33
2022/04/20 06:58:50;;;;;;;5.43;3.00;;;;;;;22.84;26.62;101743.25;5015239;28;20115;-35
2022/04/20 07:01:15;;;;;;;6.25;3.00;;;;;;;23.72;25.53;101732.59;5014135;28;20495;-36
2022/04/20 07:03:41;;;;;;;4.03;2.80;;;;;;;24.50;24.38;101732.06;5014363;28;20017;-35
2022/04/20 07:06:06;;;;;;;4.85;3.00;;;;;;;25.20;23.76;101743.97;5014381;28;20524;-34
2022/04/20 07:08:33;;;;;;;9.18;3.17;;;;;;;24.84;24.89;101742.25;5014773;28;20038;-34
2022/04/20 07:10:58;;;;;;;4.72;3.08;;;;;;;23.77;25.30;101732.66;5014973;28;20026;-34
2022/04/20 07:13:23;;;;;;;7.55;2.80;;;;;;;24.57;24.73;101735.28;5014128;28;20100;-34
2022/04/20 07:15:49;;;;;;;4.60;3.08;;;;;;;23.37;26.00;101731.22;5015134;28;20037;-34
2022/04/20 07:18:15;;;;;;;6.90;2.90;;;;;;;23.64;25.59;101731.19;5014836;28;20358;-33
2022/04/20 07:20:41;;;;;;;5.45;2.70;;;;;;;24.04;25.50;101729.13;5015134;28;20018;-34
2022/04/20 07:23:07;;;;;;;5.88;3.13;;;;;;;24.38;24.42;101734.88;5014944;28;20018;-35
2022/04/20 07:25:32;;;;;;;6.53;3.40;;;;;;;24.11;24.68;101740.28;5014721;28;20473;-34
2022/04/20 07:27:58;;;;;;;4.95;3.08;;;;;;;24.45;24.23;101737.31;5014692;28;20105;-32
2022/04/20 07:30:26;;;;;;;9.98;3.10;;;;;;;23.40;25.30;101729.94;5014725;28;20025;-36
2022/04/20 07:32:51;;;;;;;4.57;3.20;;;;;;;24.82;24.23;101739.06;4997080;28;20032;-35
2022/04/20 07:35:17;;;;;;;9.18;3.25;;;;;;;24.97;24.44;101741.75;5013991;28;20026;-37
2022/04/20 07:37:42;;;;;;;11.48;3.22;;;;;;;24.79;24.08;101747.50;5014125;28;20068;-35
2022/04/20 07:40:08;;;;;;;5.35;2.90;;;;;;;24.53;24.86;101742.13;5014721;28;20017;-34
2022/04/20 07:42:36;;;;;;;9.43;2.90;;;;;;;23.67;25.91;101747.56;5013893;28;20033;-36
2022/04/20 07:45:02;;;;;;;5.40;3.05;;;;;;;23.28;25.29;101745.91;4996595;28;20021;-35
2022/04/20 07:47:28;;;;;;;6.00;3.30;;;;;;;22.61;26.47;101733.75;5014467;28;20030;-35
2022/04/20 07:52:42;;;;;;;6.88;2.90;;;;;;;24.02;25.33;101752.34;5014699;28;20098;-35
2022/04/20 07:55:09;;;;;;;5.47;3.08;;;;;;;23.75;24.66;101758.47;5014213;28;20101;-34
2022/04/20 07:57:35;;;;;;;6.93;3.38;;;;;;;23.49;25.86;101761.94;5014306;28;20040;-34
2022/04/20 08:00:01;;;;;;;4.65;3.00;;;;;;;23.07;25.92;101752.00;5013234;28;20385;-33
2022/04/20 08:02:26;;;;;;;7.05;3.20;;;;;;;22.80;26.14;101763.25;4996101;28;20060;-34
2022/04/20 08:04:52;;;;;;;6.57;3.35;;;;;;;22.11;26.94;101762.81;5013711;28;20026;-35
2022/04/20 08:07:19;;;;;;;4.80;3.20;;;;;;;22.43;26.66;101761.19;5014511;28;20037;-35
2022/04/20 08:09:45;;;;;;;6.95;3.20;;;;;;;22.42;26.68;101759.59;5013915;28;20056;-35
2022/04/20 08:12:10;;;;;;;6.68;3.20;;;;;;;22.06;28.21;101758.25;5014307;28;20053;-34
2022/04/20 08:14:35;;;;;;;7.65;3.25;;;;;;;22.95;26.97;101755.56;4996063;28;20616;-34
2022/04/20 08:17:01;;;;;;;5.65;3.20;;;;;;;22.56;27.60;101757.44;5013665;28;20091;-35
2022/04/20 08:19:26;;;;;;;5.40;3.10;;;;;;;20.94;29.36;101768.34;5012437;28;20470;-34
2022/04/20 08:21:51;;;;;;;8.40;3.08;;;;;;;18.67;31.48;101769.13;5012351;28;20030;-34
2022/04/20 08:24:17;;;;;;;5.10;3.40;;;;;;;18.84;33.69;101758.94;5010698;28;20033;-35
2022/04/20 08:26:42;;;;;;;6.57;3.40;;;;;;;18.48;33.22;101769.13;4994530;28;20028;-34
2022/04/20 08:29:09;;;;;;;8.75;3.25;;;;;;;18.78;33.40;101768.44;4979676;28;20032;-34
2022/04/20 08:31:36;;;;;;;7.75;3.38;;;;;;;19.35;32.28;101763.75;5011679;28;20425;-34
2022/04/20 08:34:01;;;;;;;6.00;3.35;;;;;;;18.52;33.37;101758.22;5012575;28;20065;-34
2022/04/20 08:36:26;;;;;;;6.88;3.50;;;;;;;18.71;33.46;101772.94;5012353;28;20057;-34
2022/04/20 08:38:51;;;;;;;10.27;3.10;;;;;;;19.07;32.80;101748.59;5013497;28;20461;-34
2022/04/20 08:41:17;;;;;;;8.40;3.20;;;;;;;18.92;33.31;101762.06;5013353;28;20030;-35
2022/04/20 08:43:42;;;;;;;5.68;3.60;;;;;;;17.64;36.37;101756.44;5013617;28;20022;-34
2022/04/20 08:46:10;;;;;;;7.53;2.88;;;;;;;18.77;33.82;101752.97;5013692;28;20152;-33
2022/04/20 08:48:35;;;;;;;6.30;3.17;;;;;;;18.49;34.88;101757.63;4996345;28;20075;-34
2022/04/20 08:51:04;;;;;;;6.25;2.78;;;;;;;18.04;34.76;101751.78;5013736;28;20516;-33
2022/04/20 08:53:30;;;;;;;6.75;3.20;;;;;;;19.24;33.58;101764.50;5013391;28;20538;-32
2022/04/20 08:58:43;;;;;;;6.47;3.00;;;;;;;18.91;35.45;101757.84;5014244;28;20037;-33
2022/04/20 09:01:10;;;;;;;5.55;3.08;;;;;;;18.49;34.25;101762.06;5012572;28;20464;-37
2022/04/20 09:03:36;;;;;;;7.20;3.20;;;;;;;18.79;34.11;101762.22;5012148;28;20022;-35
2022/04/20 09:06:01;;;;;;;6.75;3.10;;;;;;;19.49;33.20;101753.91;5010722;28;20049;-34
2022/04/20 09:08:27;;;;;;;5.40;3.03;;;;;;;19.80;32.71;101747.66;5011006;28;20060;-36
2022/04/20 09:10:53;;;;;;;5.57;2.97;;;;;;;19.66;32.56;101753.31;5012039;28;20030;-35
2022/04/20 09:13:42;;;;;;;4.93;2.97;;;;;;;18.84;32.04;101751.88;5012236;28;20092;-35
2022/04/20 09:16:12;;;;;;;8.18;2.92;;;;;;;19.00;33.06;101713.81;5013390;28;20065;-35
2022/04/20 09:18:40;;;;;;;4.78;2.90;;;;;;;20.16;32.59;101748.50;5013409;28;20113;-35
2022/04/20 09:21:16;;;;;;;5.45;2.70;;;;;;;19.12;31.75;101751.34;4995356;28;20125;-36
2022/04/20 09:23:41;;;;;;;4.68;3.00;;;;;;;19.96;32.06;101750.63;5012621;28;20038;-35
2022/04/20 09:26:25;;;;;;;8.25;2.90;;;;;;;20.26;30.40;101742.69;5013614;28;20378;-35
2022/04/20 09:29:07;;;;;;;5.47;3.10;;;;;;;19.98;31.86;101746.75;5012931;28;20026;-35
2022/04/20 09:31:42;;;;;;;9.75;3.03;;;;;;;19.72;30.99;101749.78;5013199;28;20025;-35
2022/04/20 09:34:07;;;;;;;3.75;2.67;;;;;;;20.17;31.36;101749.28;4995123;28;20061;-35
2022/04/20 09:36:46;;;;;;;6.47;2.60;;;;;;;19.77;31.51;101742.84;5015639;28;20065;-33
2022/04/20 09:39:12;;;;;;;9.55;3.08;;;;;;;20.08;32.83;101734.91;4999791;28;20033;-34
2022/04/20 09:42:00;;;;;;;5.40;2.80;;;;;;;19.94;31.68;101723.81;4997034;28;20026;-35
2022/04/20 09:44:29;;;;;;;6.70;3.10;;;;;;;19.35;32.38;101734.94;5014570;28;20025;-36
2022/04/20 09:49:54;;;;;;;6.78;3.08;;;;;;;19.62;31.07;101737.19;5015869;28;20096;-34
2022/04/20 09:52:21;;;;;;;4.88;2.85;;;;;;;19.64;32.50;101735.16;5016205;28;20034;-35
2022/04/20 09:54:53;;;;;;;5.90;3.30;;;;;;;19.32;32.76;101688.22;5016366;28;20025;-34
2022/04/20 09:57:20;;;;;;;8.20;3.00;;;;;;;19.99;31.82;101740.47;4998990;28;20037;-34
2022/04/20 09:59:55;;;;;;;7.80;3.10;;;;;;;19.06;32.34;101735.72;5016154;28;20033;-34
2022/04/20 10:02:21;;;;;;;6.43;3.10;;;;;;;19.50;32.74;101731.13;5016671;28;20120;-35
2022/04/20 10:04:48;;;;;;;6.80;3.15;;;;;;;19.75;31.76;101720.50;5015761;28;20426;-35
2022/04/20 10:07:13;;;;;;;6.32;3.25;;;;;;;20.17;31.92;101726.50;5016129;28;20449;-34
2022/04/20 10:09:39;;;;;;;6.60;3.20;;;;;;;19.05;32.88;101716.59;5016111;28;20025;-34
2022/04/20 10:12:06;;;;;;;7.18;3.08;;;;;;;20.40;31.51;101717.00;4998499;28;20030;-33
2022/04/20 10:17:21;;;;;;;4.50;3.05;;;;;;;20.66;32.12;101707.88;5015074;28;20096;-35
2022/04/20 10:19:47;;;;;;;5.63;3.30;;;;;;;20.08;30.86;101706.03;5014596;28;20059;-35
2022/04/20 10:22:17;;;;;;;5.88;3.10;;;;;;;21.26;31.10;101707.47;5014514;28;20022;-37
2022/04/20 10:24:45;;;;;;;6.57;3.25;;;;;;;21.60;30.12;101702.25;4997798;28;20034;-36
2022/04/20 10:27:21;;;;;;;5.72;3.35;;;;;;;21.73;30.23;101706.44;5014697;28;20032;-34
2022/04/20 10:29:58;;;;;;;6.53;2.80;;;;;;;21.49;29.25;101701.31;4997608;28;20480;-37
2022/04/20 10:32:26;;;;;;;5.47;2.90;;;;;;;21.41;31.17;101704.34;5015124;28;20579;-38
2022/04/20 10:34:53;;;;;;;5.07;3.05;;;;;;;21.05;30.75;101708.09;5014415;28;20033;-34
2022/04/20 10:37:31;;;;;;;7.35;2.92;;;;;;;21.22;31.31;101677.41;4996907;28;20041;-34
2022/04/20 10:40:15;;;;;;;6.00;2.78;;;;;;;19.78;30.47;101685.97;5015713;28;20033;-37
2022/04/20 10:42:41;;;;;;;5.55;2.65;;;;;;;19.45;31.63;101696.91;4997977;28;20034;-34
2022/04/20 10:45:12;;;;;;;9.55;2.80;;;;;;;17.69;34.11;101689.44;4997914;28;20025;-32
2022/04/20 10:47:42;;;;;;;4.75;2.60;;;;;;;19.60;32.86;101692.06;5014608;28;20030;-34
2022/04/20 10:50:21;;;;;;;4.22;2.47;;;;;;;20.91;30.87;101673.41;4997444;28;20057;-34
2022/04/20 10:52:48;;;;;;;7.28;2.97;;;;;;;21.06;30.46;101678.97;5015450;28;20092;-36
2022/04/20 10:55:13;;;;;;;4.30;2.65;;;;;;;20.16;31.21;101675.03;5015082;28;20029;-34
2022/04/20 10:57:41;;;;;;;4.25;2.60;;;;;;;19.54;33.33;101678.03;5015278;28;20068;-35
2022/04/20 11:00:19;;;;;;;7.13;2.60;;;;;;;20.66;31.42;101674.53;5015194;28;20033;-33
2022/04/20 11:02:51;;;;;;;4.07;2.50;;;;;;;20.53;31.62;101659.03;5015333;28;20034;-32
2022/04/20 11:05:24;;;;;;;4.90;2.60;;;;;;;20.50;31.26;101662.88;5015344;28;20033;-34
2022/04/20 11:07:59;;;;;;;4.63;2.53;;;;;;;21.57;30.69;101653.56;4997735;28;20365;-34
2022/04/20 11:10:24;;;;;;;4.63;2.58;;;;;;;20.61;30.60;101661.31;5015579;28;20489;-32
2022/04/20 11:18:39;;;;;;;6.65;2.53;;;;;;;20.36;32.29;101616.13;5015245;28;20037;-34
2022/04/20 11:21:04;;;;;;;4.63;2.42;;;;;;;21.69;29.26;101650.84;5013694;28;20030;-33
2022/04/20 11:23:51;;;;;;;4.13;2.38;;;;;;;21.42;29.25;101642.03;5013645;28;20034;-34
2022/04/20 11:26:25;;;;;;;3.72;2.42;;;;;;;22.25;28.62;101649.06;5014153;28;20496;-36
2022/04/20 11:28:52;;;;;;;5.20;2.35;;;;;;;21.53;28.56;101643.78;5013213;28;20034;-35
2022/04/20 11:31:18;;;;;;;8.38;2.60;;;;;;;22.40;28.25;101637.13;5013979;28;20025;-35
2022/04/20 11:33:43;;;;;;;8.93;2.42;;;;;;;22.80;27.13;101636.78;5014214;28;20049;-34
2022/04/20 11:36:16;;;;;;;3.63;2.10;;;;;;;22.28;27.33;101631.97;4996595;28;20037;-34
2022/04/20 11:38:43;;;;;;;4.03;2.22;;;;;;;22.59;28.06;101625.22;4997194;28;20092;-32
2022/04/20 11:41:10;;;;;;;5.20;2.40;;;;;;;20.94;28.72;101621.22;5014272;28;20030;-36
2022/04/20 11:43:37;;;;;;;5.32;2.40;;;;;;;21.15;28.67;101611.84;4996965;28;20026;-33
2022/04/20 11:46:03;;;;;;;5.68;2.20;;;;;;;20.21;28.58;101632.34;5014246;28;20034;-35
2022/04/20 11:48:29;;;;;;;3.70;2.20;;;;;;;19.79;29.55;101617.56;5013902;28;20424;-35
2022/04/20 11:50:59;;;;;;;3.53;2.30;;;;;;;21.02;29.06;101613.97;5013845;28;20022;-35
2022/04/20 11:53:39;;;;;;;3.88;2.17;;;;;;;21.70;27.56;101612.22;4996564;28;20044;-34
2022/04/20 11:56:07;;;;;;;3.97;2.30;;;;;;;20.82;28.50;101624.91;4996175;28;20076;-32
2022/04/20 11:58:33;;;;;;;6.65;2.35;;;;;;;20.95;29.45;101607.03;5013647;28;20025;-35